sensor_id;sensor_type;location;lat;lon;timestamp;pressure;altitude;pressure_sealevel;temperature;humidity
70468;BME280;57934;51.532;7.684;2023-01-28T00:02:13;101581.66;;;1.01;86.24
70468;BME280;57934;51.532;7.684;2023-01-28T00:04:40;101581.97;;;0.97;86.07
70468;BME280;57934;51.532;7.684;2023-01-28T00:07:06;101579.25;;;0.98;85.95
70468;BME280;57934;51.532;7.684;2023-01-28T00:09:32;101579.06;;;1.01;86.55
70468;BME280;57934;51.532;7.684;2023-01-28T00:11:58;101588.63;;;1.01;86.60
70468;BME280;57934;51.532;7.684;2023-01-28T00:14:24;101583.72;;;0.96;86.24
70468;BME280;57934;51.532;7.684;2023-01-28T00:16:50;101580.38;;;0.94;86.66
70468;BME280;57934;51.532;7.684;2023-01-28T00:19:16;101587.25;;;0.95;86.46
70468;BME280;57934;51.532;7.684;2023-01-28T00:21:42;101576.75;;;0.97;86.24
70468;BME280;57934;51.532;7.684;2023-01-28T00:24:08;101573.41;;;0.94;85.83
70468;BME280;57934;51.532;7.684;2023-01-28T00:26:34;101578.53;;;0.96;85.94
70468;BME280;57934;51.532;7.684;2023-01-28T00:29:00;101572.50;;;0.95;86.06
70468;BME280;57934;51.532;7.684;2023-01-28T00:31:27;101571.97;;;0.90;86.08
70468;BME280;57934;51.532;7.684;2023-01-28T00:33:55;101564.81;;;0.94;86.19
70468;BME280;57934;51.532;7.684;2023-01-28T00:36:23;101570.56;;;0.99;86.91
70468;BME280;57934;51.532;7.684;2023-01-28T00:38:51;101575.31;;;1.05;86.57
70468;BME280;57934;51.532;7.684;2023-01-28T00:41:20;101576.66;;;0.98;86.28
70468;BME280;57934;51.532;7.684;2023-01-28T00:43:51;101576.66;;;0.98;85.69
70468;BME280;57934;51.532;7.684;2023-01-28T00:46:18;101573.34;;;0.96;86.33
70468;BME280;57934;51.532;7.684;2023-01-28T00:48:45;101574.59;;;1.03;86.80
70468;BME280;57934;51.532;7.684;2023-01-28T00:51:14;101566.88;;;0.89;84.69
70468;BME280;57934;51.532;7.684;2023-01-28T00:53:43;101575.69;;;0.86;84.36
70468;BME280;57934;51.532;7.684;2023-01-28T00:56:15;101568.91;;;0.84;82.79
70468;BME280;57934;51.532;7.684;2023-01-28T00:58:43;101581.19;;;0.82;83.39
70468;BME280;57934;51.532;7.684;2023-01-28T01:03:38;101590.88;;;0.92;82.98
70468;BME280;57934;51.532;7.684;2023-01-28T01:06:05;101592.72;;;0.90;83.37
70468;BME280;57934;51.532;7.684;2023-01-28T01:08:32;101591.66;;;0.80;83.42
70468;BME280;57934;51.532;7.684;2023-01-28T01:11:07;101586.13;;;0.72;83.91
70468;BME280;57934;51.532;7.684;2023-01-28T01:13:34;101584.50;;;0.84;84.17
70468;BME280;57934;51.532;7.684;2023-01-28T01:16:20;101574.97;;;0.84;84.08
70468;BME280;57934;51.532;7.684;2023-01-28T01:18:49;101581.72;;;0.87;84.34
70468;BME280;57934;51.532;7.684;2023-01-28T01:21:22;101581.81;;;0.85;84.14
70468;BME280;57934;51.532;7.684;2023-01-28T01:23:49;101583.47;;;0.86;83.28
70468;BME280;57934;51.532;7.684;2023-01-28T01:26:16;101583.22;;;0.77;83.36
70468;BME280;57934;51.532;7.684;2023-01-28T01:28:42;101586.94;;;0.73;83.91
70468;BME280;57934;51.532;7.684;2023-01-28T01:31:17;101584.91;;;0.78;83.28
70468;BME280;57934;51.532;7.684;2023-01-28T01:33:46;101591.94;;;0.76;82.93
70468;BME280;57934;51.532;7.684;2023-01-28T01:36:15;101590.19;;;0.76;83.64
70468;BME280;57934;51.532;7.684;2023-01-28T01:38:42;101590.19;;;0.76;82.97
70468;BME280;57934;51.532;7.684;2023-01-28T01:41:19;101584.47;;;0.71;82.88
70468;BME280;57934;51.532;7.684;2023-01-28T01:43:56;101590.28;;;0.75;83.61
70468;BME280;57934;51.532;7.684;2023-01-28T01:46:30;101591.31;;;0.72;83.50
70468;BME280;57934;51.532;7.684;2023-01-28T01:49:05;101594.66;;;0.74;82.81
70468;BME280;57934;51.532;7.684;2023-01-28T01:51:35;101596.50;;;0.72;82.57
70468;BME280;57934;51.532;7.684;2023-01-28T01:54:03;101599.84;;;0.74;82.16
70468;BME280;57934;51.532;7.684;2023-01-28T01:56:33;101600.03;;;0.71;82.32
70468;BME280;57934;51.532;7.684;2023-01-28T01:59:01;101598.34;;;0.70;82.24
70468;BME280;57934;51.532;7.684;2023-01-28T02:01:30;101591.50;;;0.69;81.94
70468;BME280;57934;51.532;7.684;2023-01-28T02:04:09;101589.53;;;0.73;82.52
70468;BME280;57934;51.532;7.684;2023-01-28T02:06:38;101601.06;;;0.68;83.35
70468;BME280;57934;51.532;7.684;2023-01-28T02:09:28;101596.81;;;0.67;83.68
70468;BME280;57934;51.532;7.684;2023-01-28T02:12:06;101599.59;;;0.64;84.05
70468;BME280;57934;51.532;7.684;2023-01-28T02:14:37;101603.66;;;0.68;84.12
70468;BME280;57934;51.532;7.684;2023-01-28T02:17:04;101605.97;;;0.59;83.50
70468;BME280;57934;51.532;7.684;2023-01-28T02:19:47;101608.09;;;0.66;83.69
70468;BME280;57934;51.532;7.684;2023-01-28T02:22:33;101610.03;;;0.63;83.64
70468;BME280;57934;51.532;7.684;2023-01-28T02:25:30;101612.00;;;0.59;83.88
70468;BME280;57934;51.532;7.684;2023-01-28T02:28:28;101619.16;;;0.56;82.69
70468;BME280;57934;51.532;7.684;2023-01-28T02:33:58;101620.25;;;0.52;82.47
70468;BME280;57934;51.532;7.684;2023-01-28T02:39:33;101619.34;;;0.53;82.73
70468;BME280;57934;51.532;7.684;2023-01-28T02:42:11;101626.69;;;0.46;81.99
70468;BME280;57934;51.532;7.684;2023-01-28T02:44:40;101628.63;;;0.42;82.22
70468;BME280;57934;51.532;7.684;2023-01-28T02:47:13;101620.28;;;0.37;81.33
70468;BME280;57934;51.532;7.684;2023-01-28T02:50:01;101624.47;;;0.40;81.53
70468;BME280;57934;51.532;7.684;2023-01-28T02:55:42;101623.78;;;0.51;81.22
70468;BME280;57934;51.532;7.684;2023-01-28T02:58:36;101620.38;;;0.50;81.14
70468;BME280;57934;51.532;7.684;2023-01-28T03:01:49;101623.97;;;0.47;81.50
70468;BME280;57934;51.532;7.684;2023-01-28T03:04:21;101627.34;;;0.50;81.41
70468;BME280;57934;51.532;7.684;2023-01-28T03:06:53;101611.00;;;0.47;81.71
70468;BME280;57934;51.532;7.684;2023-01-28T03:09:21;101613.41;;;0.51;82.37
70468;BME280;57934;51.532;7.684;2023-01-28T03:12:02;101618.59;;;0.51;82.64
70468;BME280;57934;51.532;7.684;2023-01-28T03:14:53;101615.72;;;0.55;81.86
70468;BME280;57934;51.532;7.684;2023-01-28T03:17:47;101610.44;;;0.57;81.87
70468;BME280;57934;51.532;7.684;2023-01-28T03:20:47;101609.97;;;0.64;81.08
70468;BME280;57934;51.532;7.684;2023-01-28T03:23:58;101608.94;;;0.67;80.86
70468;BME280;57934;51.532;7.684;2023-01-28T03:30:04;101599.69;;;0.48;81.70
70468;BME280;57934;51.532;7.684;2023-01-28T03:32:50;101602.28;;;0.48;81.53
70468;BME280;57934;51.532;7.684;2023-01-28T03:35:37;101604.88;;;0.48;82.04
70468;BME280;57934;51.532;7.684;2023-01-28T03:38:23;101599.97;;;0.58;82.29
70468;BME280;57934;51.532;7.684;2023-01-28T03:40:56;101604.31;;;0.58;82.32
70468;BME280;57934;51.532;7.684;2023-01-28T03:43:23;101611.31;;;0.43;81.90
70468;BME280;57934;51.532;7.684;2023-01-28T03:45:49;101608.31;;;0.35;82.09
70468;BME280;57934;51.532;7.684;2023-01-28T03:48:22;101610.38;;;0.30;82.68
70468;BME280;57934;51.532;7.684;2023-01-28T03:50:51;101616.03;;;0.36;82.54
70468;BME280;57934;51.532;7.684;2023-01-28T03:53:18;101615.22;;;0.36;82.46
70468;BME280;57934;51.532;7.684;2023-01-28T03:55:47;101622.34;;;0.32;82.73
70468;BME280;57934;51.532;7.684;2023-01-28T03:58:14;101618.44;;;0.39;83.08
70468;BME280;57934;51.532;7.684;2023-01-28T04:00:41;101616.31;;;0.46;82.56
70468;BME280;57934;51.532;7.684;2023-01-28T04:03:11;101627.50;;;0.46;82.77
70468;BME280;57934;51.532;7.684;2023-01-28T04:05:59;101632.31;;;0.53;82.66
70468;BME280;57934;51.532;7.684;2023-01-28T04:08:38;101624.47;;;0.40;82.22
70468;BME280;57934;51.532;7.684;2023-01-28T04:11:25;101624.53;;;0.38;81.91
70468;BME280;57934;51.532;7.684;2023-01-28T04:13:52;101626.50;;;0.35;81.93
70468;BME280;57934;51.532;7.684;2023-01-28T04:16:18;101626.50;;;0.35;82.12
70468;BME280;57934;51.532;7.684;2023-01-28T04:18:46;101618.97;;;0.44;81.71
70468;BME280;57934;51.532;7.684;2023-01-28T04:21:13;101624.09;;;0.46;81.66
70468;BME280;57934;51.532;7.684;2023-01-28T04:23:48;101626.41;;;0.36;81.93
70468;BME280;57934;51.532;7.684;2023-01-28T04:26:14;101628.44;;;0.31;81.69
70468;BME280;57934;51.532;7.684;2023-01-28T04:28:41;101626.59;;;0.33;81.46
70468;BME280;57934;51.532;7.684;2023-01-28T04:31:07;101622.78;;;0.24;81.95
70468;BME280;57934;51.532;7.684;2023-01-28T04:33:44;101634.84;;;0.40;82.07
70468;BME280;57934;51.532;7.684;2023-01-28T04:36:25;101631.31;;;0.41;81.59
70468;BME280;57934;51.532;7.684;2023-01-28T04:39:06;101640.09;;;0.38;81.39
70468;BME280;57934;51.532;7.684;2023-01-28T04:41:52;101632.06;;;0.29;81.00
70468;BME280;57934;51.532;7.684;2023-01-28T04:44:39;101639.63;;;0.17;81.50
70468;BME280;57934;51.532;7.684;2023-01-28T04:47:17;101643.28;;;0.15;81.65
70468;BME280;57934;51.532;7.684;2023-01-28T04:50:16;101655.94;;;0.05;81.07
70468;BME280;57934;51.532;7.684;2023-01-28T04:52:58;101654.28;;;0.04;81.47
70468;BME280;57934;51.532;7.684;2023-01-28T04:55:47;101652.06;;;0.12;81.69
70468;BME280;57934;51.532;7.684;2023-01-28T04:58:14;101656.06;;;0.18;80.87
70468;BME280;57934;51.532;7.684;2023-01-28T05:00:42;101643.63;;;0.23;80.58
70468;BME280;57934;51.532;7.684;2023-01-28T05:03:08;101655.00;;;0.06;81.53
70468;BME280;57934;51.532;7.684;2023-01-28T05:05:34;101649.00;;;0.06;81.40
70468;BME280;57934;51.532;7.684;2023-01-28T05:08:16;101650.94;;;0.02;81.51
70468;BME280;57934;51.532;7.684;2023-01-28T05:10:44;101654.53;;;-0.15;80.19
70468;BME280;57934;51.532;7.684;2023-01-28T05:13:11;101646.94;;;-0.04;80.59
70468;BME280;57934;51.532;7.684;2023-01-28T05:15:37;101639.91;;;-0.02;80.17
70468;BME280;57934;51.532;7.684;2023-01-28T05:18:04;101636.69;;;0.09;80.24
70468;BME280;57934;51.532;7.684;2023-01-28T05:20:38;101635.84;;;0.09;79.76
70468;BME280;57934;51.532;7.684;2023-01-28T05:23:04;101640.84;;;-0.03;79.38
70468;BME280;57934;51.532;7.684;2023-01-28T05:25:49;101642.50;;;-0.02;79.89
70468;BME280;57934;51.532;7.684;2023-01-28T05:28:15;101646.59;;;0.03;80.11
70468;BME280;57934;51.532;7.684;2023-01-28T05:30:42;101649.66;;;0.09;80.10
70468;BME280;57934;51.532;7.684;2023-01-28T05:33:08;101651.78;;;0.03;79.41
70468;BME280;57934;51.532;7.684;2023-01-28T05:35:34;101644.81;;;0.03;79.21
70468;BME280;57934;51.532;7.684;2023-01-28T05:38:14;101647.69;;;-0.02;79.91
70468;BME280;57934;51.532;7.684;2023-01-28T05:40:40;101648.53;;;-0.01;78.89
70468;BME280;57934;51.532;7.684;2023-01-28T05:43:06;101650.56;;;-0.06;79.13
70468;BME280;57934;51.532;7.684;2023-01-28T05:46:07;101659.31;;;0.07;79.54
70468;BME280;57934;51.532;7.684;2023-01-28T05:49:08;101650.31;;;0.13;79.68
70468;BME280;57934;51.532;7.684;2023-01-28T05:52:09;101652.91;;;0.13;79.47
70468;BME280;57934;51.532;7.684;2023-01-28T05:54:36;101661.16;;;0.19;79.09
70468;BME280;57934;51.532;7.684;2023-01-28T05:57:02;101665.50;;;0.19;78.23
70468;BME280;57934;51.532;7.684;2023-01-28T05:59:29;101666.50;;;0.16;78.75
70468;BME280;57934;51.532;7.684;2023-01-28T06:01:57;101677.63;;;0.18;78.77
70468;BME280;57934;51.532;7.684;2023-01-28T06:04:24;101674.28;;;0.16;78.73
70468;BME280;57934;51.532;7.684;2023-01-28T06:06:50;101671.03;;;0.13;79.17
70468;BME280;57934;51.532;7.684;2023-01-28T06:09:16;101667.25;;;0.18;79.79
70468;BME280;57934;51.532;7.684;2023-01-28T06:11:43;101666.44;;;0.18;78.45
70468;BME280;57934;51.532;7.684;2023-01-28T06:14:10;101671.97;;;0.12;78.42
70468;BME280;57934;51.532;7.684;2023-01-28T06:16:50;101673.16;;;0.06;79.09
70468;BME280;57934;51.532;7.684;2023-01-28T06:19:34;101675.03;;;0.04;78.63
70468;BME280;57934;51.532;7.684;2023-01-28T06:22:01;101667.25;;;0.04;78.78
70468;BME280;57934;51.532;7.684;2023-01-28T06:24:27;101676.69;;;0.05;78.81
70468;BME280;57934;51.532;7.684;2023-01-28T06:26:53;101672.34;;;0.06;79.19
70468;BME280;57934;51.532;7.684;2023-01-28T06:29:20;101671.22;;;0.10;79.27
70468;BME280;57934;51.532;7.684;2023-01-28T06:31:46;101669.75;;;0.06;79.06
70468;BME280;57934;51.532;7.684;2023-01-28T06:34:13;101675.59;;;0.09;79.22
70468;BME280;57934;51.532;7.684;2023-01-28T06:36:40;101676.97;;;0.01;78.48
70468;BME280;57934;51.532;7.684;2023-01-28T06:39:06;101674.44;;;-0.01;78.25
70468;BME280;57934;51.532;7.684;2023-01-28T06:41:32;101676.66;;;-0.09;78.27
70468;BME280;57934;51.532;7.684;2023-01-28T06:43:59;101675.09;;;-0.12;78.22
70468;BME280;57934;51.532;7.684;2023-01-28T06:46:25;101674.25;;;-0.12;78.24
70468;BME280;57934;51.532;7.684;2023-01-28T06:48:51;101674.38;;;0.01;78.50
70468;BME280;57934;51.532;7.684;2023-01-28T06:51:17;101684.56;;;0.04;76.99
70468;BME280;57934;51.532;7.684;2023-01-28T06:53:43;101682.59;;;-0.07;77.14
70468;BME280;57934;51.532;7.684;2023-01-28T06:56:10;101670.91;;;-0.14;77.31
70468;BME280;57934;51.532;7.684;2023-01-28T06:59:02;101674.16;;;-0.11;77.80
70468;BME280;57934;51.532;7.684;2023-01-28T07:01:35;101679.16;;;-0.08;78.30
70468;BME280;57934;51.532;7.684;2023-01-28T07:04:02;101688.53;;;-0.05;78.59
70468;BME280;57934;51.532;7.684;2023-01-28T07:06:28;101679.75;;;-0.03;79.01
70468;BME280;57934;51.532;7.684;2023-01-28T07:08:55;101661.41;;;0.01;79.30
70468;BME280;57934;51.532;7.684;2023-01-28T07:11:21;101656.06;;;0.04;79.21
70468;BME280;57934;51.532;7.684;2023-01-28T07:13:47;101659.47;;;0.04;78.84
70468;BME280;57934;51.532;7.684;2023-01-28T07:16:13;101659.38;;;0.06;78.55
70468;BME280;57934;51.532;7.684;2023-01-28T07:18:39;101668.09;;;0.05;78.45
70468;BME280;57934;51.532;7.684;2023-01-28T07:21:06;101664.56;;;0.06;77.83
70468;BME280;57934;51.532;7.684;2023-01-28T07:23:32;101664.84;;;0.01;77.20
70468;BME280;57934;51.532;7.684;2023-01-28T07:26:02;101661.78;;;-0.06;76.79
70468;BME280;57934;51.532;7.684;2023-01-28T07:28:28;101677.19;;;-0.18;77.08
70468;BME280;57934;51.532;7.684;2023-01-28T07:31:00;101672.59;;;-0.13;77.09
70468;BME280;57934;51.532;7.684;2023-01-28T07:33:27;101664.53;;;-0.09;77.61
70468;BME280;57934;51.532;7.684;2023-01-28T07:35:53;101669.28;;;-0.01;77.56
70468;BME280;57934;51.532;7.684;2023-01-28T07:38:19;101670.97;;;0.00;77.25
70468;BME280;57934;51.532;7.684;2023-01-28T07:40:46;101676.16;;;0.00;77.72
70468;BME280;57934;51.532;7.684;2023-01-28T07:43:13;101676.78;;;0.04;78.01
70468;BME280;57934;51.532;7.684;2023-01-28T07:45:40;101667.69;;;-0.04;77.29
70468;BME280;57934;51.532;7.684;2023-01-28T07:48:38;101677.03;;;-0.01;77.75
70468;BME280;57934;51.532;7.684;2023-01-28T07:51:50;101676.16;;;0.00;77.86
70468;BME280;57934;51.532;7.684;2023-01-28T07:54:16;101687.91;;;0.06;77.76
70468;BME280;57934;51.532;7.684;2023-01-28T07:56:42;101689.78;;;0.18;77.94
70468;BME280;57934;51.532;7.684;2023-01-28T07:59:09;101690.03;;;0.13;77.47
70468;BME280;57934;51.532;7.684;2023-01-28T08:01:36;101690.13;;;0.12;78.18
70468;BME280;57934;51.532;7.684;2023-01-28T08:04:07;101688.09;;;0.17;78.10
70468;BME280;57934;51.532;7.684;2023-01-28T08:06:34;101691.25;;;0.22;78.16
70468;BME280;57934;51.532;7.684;2023-01-28T08:09:05;101689.97;;;0.29;78.34
70468;BME280;57934;51.532;7.684;2023-01-28T08:12:16;101692.28;;;0.34;76.90
70468;BME280;57934;51.532;7.684;2023-01-28T08:15:54;101699.34;;;0.32;76.73
70468;BME280;57934;51.532;7.684;2023-01-28T08:18:21;101706.19;;;0.33;76.83
70468;BME280;57934;51.532;7.684;2023-01-28T08:20:56;101720.41;;;0.11;76.64
70468;BME280;57934;51.532;7.684;2023-01-28T08:23:22;101728.19;;;0.11;77.11
70468;BME280;57934;51.532;7.684;2023-01-28T08:25:56;101733.94;;;0.16;77.10
70468;BME280;57934;51.532;7.684;2023-01-28T08:28:56;101723.88;;;0.26;76.97
70468;BME280;57934;51.532;7.684;2023-01-28T08:31:23;101725.16;;;0.33;77.23
70468;BME280;57934;51.532;7.684;2023-01-28T08:33:49;101724.34;;;0.47;77.21
70468;BME280;57934;51.532;7.684;2023-01-28T08:36:17;101733.97;;;0.45;76.15
70468;BME280;57934;51.532;7.684;2023-01-28T08:38:43;101736.97;;;0.53;75.77
70468;BME280;57934;51.532;7.684;2023-01-28T08:41:10;101743.81;;;0.54;75.74
70468;BME280;57934;51.532;7.684;2023-01-28T08:43:36;101745.00;;;0.63;75.81
70468;BME280;57934;51.532;7.684;2023-01-28T08:46:05;101753.25;;;0.55;74.89
70468;BME280;57934;51.532;7.684;2023-01-28T08:48:31;101750.47;;;0.58;75.59
70468;BME280;57934;51.532;7.684;2023-01-28T08:51:07;101762.91;;;0.53;75.18
70468;BME280;57934;51.532;7.684;2023-01-28T08:54:03;101769.88;;;0.67;75.18
70468;BME280;57934;51.532;7.684;2023-01-28T08:56:39;101772.66;;;0.64;75.14
70468;BME280;57934;51.532;7.684;2023-01-28T08:59:21;101771.16;;;0.60;75.87
70468;BME280;57934;51.532;7.684;2023-01-28T09:02:36;101771.25;;;0.58;74.00
70468;BME280;57934;51.532;7.684;2023-01-28T09:05:05;101782.09;;;0.65;73.87
70468;BME280;57934;51.532;7.684;2023-01-28T09:10:40;101801.00;;;0.67;74.64
70468;BME280;57934;51.532;7.684;2023-01-28T09:14:16;101784.78;;;0.63;73.88
70468;BME280;57934;51.532;7.684;2023-01-28T09:16:42;101787.09;;;0.54;73.55
70468;BME280;57934;51.532;7.684;2023-01-28T09:19:21;101793.31;;;0.65;73.17
70468;BME280;57934;51.532;7.684;2023-01-28T09:21:49;101798.31;;;0.68;73.17
70468;BME280;57934;51.532;7.684;2023-01-28T09:24:28;101794.25;;;0.79;73.88
70468;BME280;57934;51.532;7.684;2023-01-28T09:27:30;101794.53;;;0.74;73.16
70468;BME280;57934;51.532;7.684;2023-01-28T09:30:03;101792.00;;;0.73;72.47
70468;BME280;57934;51.532;7.684;2023-01-28T09:32:29;101797.50;;;0.82;73.04
70468;BME280;57934;51.532;7.684;2023-01-28T09:34:56;101802.41;;;0.87;72.98
70468;BME280;57934;51.532;7.684;2023-01-28T09:37:23;101805.75;;;0.89;72.14
70468;BME280;57934;51.532;7.684;2023-01-28T09:39:49;101813.53;;;0.60;71.89
70468;BME280;57934;51.532;7.684;2023-01-28T09:45:37;101818.31;;;0.52;72.00
70468;BME280;57934;51.532;7.684;2023-01-28T09:48:12;101814.41;;;0.59;72.14
70468;BME280;57934;51.532;7.684;2023-01-28T09:50:47;101818.31;;;0.52;71.80
70468;BME280;57934;51.532;7.684;2023-01-28T09:53:54;101823.00;;;0.45;72.72
70468;BME280;57934;51.532;7.684;2023-01-28T09:56:45;101818.13;;;0.55;72.82
70468;BME280;57934;51.532;7.684;2023-01-28T09:59:54;101825.84;;;0.71;72.49
70468;BME280;57934;51.532;7.684;2023-01-28T10:02:40;101828.81;;;0.65;71.47
70468;BME280;57934;51.532;7.684;2023-01-28T10:08:25;101833.19;;;0.79;71.67
70468;BME280;57934;51.532;7.684;2023-01-28T10:14:57;101817.13;;;1.15;70.57
70468;BME280;57934;51.532;7.684;2023-01-28T10:18:13;101810.16;;;1.15;70.27
70468;BME280;57934;51.532;7.684;2023-01-28T10:20:53;101808.50;;;1.29;70.09
70468;BME280;57934;51.532;7.684;2023-01-28T10:24:23;101815.00;;;1.22;68.51
70468;BME280;57934;51.532;7.684;2023-01-28T10:26:45;101806.56;;;1.18;69.03
70468;BME280;57934;51.532;7.684;2023-01-28T10:29:19;101804.69;;;1.34;69.84
70468;BME280;57934;51.532;7.684;2023-01-28T10:34:24;101792.44;;;1.22;70.36
70468;BME280;57934;51.532;7.684;2023-01-28T10:37:12;101796.50;;;1.40;69.78
70468;BME280;57934;51.532;7.684;2023-01-28T10:39:43;101794.66;;;1.28;69.55
70468;BME280;57934;51.532;7.684;2023-01-28T10:42:27;101788.53;;;1.29;69.59
70468;BME280;57934;51.532;7.684;2023-01-28T10:45:02;101800.81;;;1.27;68.83
70468;BME280;57934;51.532;7.684;2023-01-28T10:47:37;101798.06;;;1.43;68.51
70468;BME280;57934;51.532;7.684;2023-01-28T10:50:14;101798.56;;;1.21;67.85
70468;BME280;57934;51.532;7.684;2023-01-28T10:52:58;101796.53;;;1.12;68.14
70468;BME280;57934;51.532;7.684;2023-01-28T10:55:28;101796.28;;;1.16;68.52
70468;BME280;57934;51.532;7.684;2023-01-28T10:57:55;101803.16;;;0.89;68.90
70468;BME280;57934;51.532;7.684;2023-01-28T11:00:29;101808.53;;;1.00;68.64
70468;BME280;57934;51.532;7.684;2023-01-28T11:02:56;101807.69;;;1.14;69.26
70468;BME280;57934;51.532;7.684;2023-01-28T11:05:25;101818.34;;;1.09;68.39
70468;BME280;57934;51.532;7.684;2023-01-28T11:08:03;101825.94;;;0.98;68.32
70468;BME280;57934;51.532;7.684;2023-01-28T11:10:35;101826.41;;;1.05;69.44
70468;BME280;57934;51.532;7.684;2023-01-28T11:13:04;101826.81;;;1.13;68.35
70468;BME280;57934;51.532;7.684;2023-01-28T11:15:31;101835.03;;;1.05;67.81
70468;BME280;57934;51.532;7.684;2023-01-28T11:18:02;101834.50;;;1.00;68.09
70468;BME280;57934;51.532;7.684;2023-01-28T11:20:36;101836.16;;;1.01;68.13
70468;BME280;57934;51.532;7.684;2023-01-28T11:23:03;101836.53;;;1.09;68.35
70468;BME280;57934;51.532;7.684;2023-01-28T11:25:33;101831.69;;;1.17;67.83
70468;BME280;57934;51.532;7.684;2023-01-28T11:28:02;101829.84;;;1.05;67.67
70468;BME280;57934;51.532;7.684;2023-01-28T11:30:32;101831.88;;;1.14;68.13
70468;BME280;57934;51.532;7.684;2023-01-28T11:33:15;101839.03;;;1.25;68.13
70468;BME280;57934;51.532;7.684;2023-01-28T11:36:10;101829.75;;;0.92;68.70
70468;BME280;57934;51.532;7.684;2023-01-28T11:42:18;101815.66;;;0.97;69.47
70468;BME280;57934;51.532;7.684;2023-01-28T11:44:48;101814.19;;;0.92;69.01
70468;BME280;57934;51.532;7.684;2023-01-28T11:52:45;101815.78;;;0.95;68.88
70468;BME280;57934;51.532;7.684;2023-01-28T12:00:48;101800.91;;;1.11;69.41
70468;BME280;57934;51.532;7.684;2023-01-28T12:06:57;101803.88;;;1.05;69.53
70468;BME280;57934;51.532;7.684;2023-01-28T12:09:50;101796.25;;;1.31;69.22
70468;BME280;57934;51.532;7.684;2023-01-28T12:12:41;101797.59;;;0.95;69.38
70468;BME280;57934;51.532;7.684;2023-01-28T12:18:31;101789.16;;;1.06;70.38
70468;BME280;57934;51.532;7.684;2023-01-28T12:21:06;101790.53;;;0.83;70.60
70468;BME280;57934;51.532;7.684;2023-01-28T12:32:40;101748.16;;;1.38;69.80
70468;BME280;57934;51.532;7.684;2023-01-28T12:41:31;101742.78;;;1.81;67.33
70468;BME280;57934;51.532;7.684;2023-01-28T12:44:29;101757.84;;;2.15;66.55
70468;BME280;57934;51.532;7.684;2023-01-28T12:47:01;101734.53;;;2.01;66.55
70468;BME280;57934;51.532;7.684;2023-01-28T12:49:47;101707.69;;;1.61;67.10
70468;BME280;57934;51.532;7.684;2023-01-28T12:52:27;101701.47;;;1.63;68.32
70468;BME280;57934;51.532;7.684;2023-01-28T12:54:58;101692.56;;;1.80;67.01
70468;BME280;57934;51.532;7.684;2023-01-28T12:57:28;101659.78;;;2.03;66.93
70468;BME280;57934;51.532;7.684;2023-01-28T13:00:24;101653.78;;;1.90;66.89
70468;BME280;57934;51.532;7.684;2023-01-28T13:03:25;101660.84;;;2.01;67.03
70468;BME280;57934;51.532;7.684;2023-01-28T13:06:05;101651.50;;;2.11;66.82
70468;BME280;57934;51.532;7.684;2023-01-28T13:08:33;101654.19;;;2.09;67.61
70468;BME280;57934;51.532;7.684;2023-01-28T13:11:01;101644.63;;;2.35;66.36
70468;BME280;57934;51.532;7.684;2023-01-28T13:13:39;101653.88;;;2.39;66.54
70468;BME280;57934;51.532;7.684;2023-01-28T13:16:10;101668.81;;;2.49;66.21
70468;BME280;57934;51.532;7.684;2023-01-28T13:21:06;101681.34;;;2.44;65.36
70468;BME280;57934;51.532;7.684;2023-01-28T13:23:41;101683.22;;;2.03;65.56
70468;BME280;57934;51.532;7.684;2023-01-28T13:26:28;101679.56;;;2.06;66.34
70468;BME280;57934;51.532;7.684;2023-01-28T13:29:27;101680.94;;;1.99;65.78
70468;BME280;57934;51.532;7.684;2023-01-28T13:31:56;101681.25;;;1.94;66.35
70468;BME280;57934;51.532;7.684;2023-01-28T13:34:36;101680.59;;;2.03;66.68
70468;BME280;57934;51.532;7.684;2023-01-28T13:37:27;101687.47;;;2.17;66.95
70468;BME280;57934;51.532;7.684;2023-01-28T13:40:26;101684.16;;;2.28;66.77
70468;BME280;57934;51.532;7.684;2023-01-28T13:46:09;101704.78;;;2.44;66.26
70468;BME280;57934;51.532;7.684;2023-01-28T13:48:49;101707.91;;;2.36;65.34
70468;BME280;57934;51.532;7.684;2023-01-28T13:53:59;101719.97;;;2.37;65.98
70468;BME280;57934;51.532;7.684;2023-01-28T13:56:31;101713.84;;;2.25;66.40
70468;BME280;57934;51.532;7.684;2023-01-28T14:01:37;101712.03;;;2.38;67.01
70468;BME280;57934;51.532;7.684;2023-01-28T14:07:02;101737.25;;;2.38;65.98
70468;BME280;57934;51.532;7.684;2023-01-28T14:13:16;101747.00;;;2.09;66.34
70468;BME280;57934;51.532;7.684;2023-01-28T14:19:40;101744.44;;;1.82;68.18
70468;BME280;57934;51.532;7.684;2023-01-28T14:22:28;101727.56;;;1.62;67.96
70468;BME280;57934;51.532;7.684;2023-01-28T14:24:59;101723.97;;;1.50;68.04
70468;BME280;57934;51.532;7.684;2023-01-28T14:27:38;101717.06;;;1.36;68.50
70468;BME280;57934;51.532;7.684;2023-01-28T14:30:21;101705.19;;;1.32;68.39
70468;BME280;57934;51.532;7.684;2023-01-28T14:32:52;101685.44;;;1.30;69.25
70468;BME280;57934;51.532;7.684;2023-01-28T14:35:30;101685.75;;;1.25;68.79
70468;BME280;57934;51.532;7.684;2023-01-28T14:37:58;101678.56;;;1.16;69.22
70468;BME280;57934;51.532;7.684;2023-01-28T14:40:27;101665.75;;;1.13;68.70
70468;BME280;57934;51.532;7.684;2023-01-28T14:42:55;101664.75;;;1.01;69.66
70468;BME280;57934;51.532;7.684;2023-01-28T14:48:33;101656.56;;;1.07;70.19
70468;BME280;57934;51.532;7.684;2023-01-28T14:56:30;101669.69;;;1.06;70.07
70468;BME280;57934;51.532;7.684;2023-01-28T14:59:19;101679.94;;;1.07;70.38
70468;BME280;57934;51.532;7.684;2023-01-28T15:01:48;101683.19;;;1.11;69.97
70468;BME280;57934;51.532;7.684;2023-01-28T15:04:31;101687.22;;;1.02;70.00
70468;BME280;57934;51.532;7.684;2023-01-28T15:07:23;101685.94;;;0.95;70.54
70468;BME280;57934;51.532;7.684;2023-01-28T15:10:13;101700.22;;;0.88;71.12
70468;BME280;57934;51.532;7.684;2023-01-28T15:12:43;101691.22;;;0.79;71.38
70468;BME280;57934;51.532;7.684;2023-01-28T15:15:37;101697.09;;;0.68;71.47
70468;BME280;57934;51.532;7.684;2023-01-28T15:18:11;101699.16;;;0.63;71.88
70468;BME280;57934;51.532;7.684;2023-01-28T15:20:45;101691.91;;;0.54;71.95